createdAt,value
2023-05-12T00:01:44.688Z,4.80
2023-05-12T00:04:12.698Z,4.60
2023-05-12T00:06:40.721Z,5.20
2023-05-12T00:09:09.713Z,5.00
2023-05-12T00:11:38.015Z,5.73
2023-05-12T00:14:06.005Z,5.53
2023-05-12T00:16:34.022Z,4.40
2023-05-12T00:19:03.429Z,5.43
2023-05-12T00:21:31.394Z,4.90
2023-05-12T00:23:59.285Z,5.60
2023-05-12T00:26:27.634Z,5.70
2023-05-12T00:28:55.599Z,5.90
2023-05-12T00:31:23.542Z,5.83
2023-05-12T00:33:51.558Z,5.60
2023-05-12T00:36:20.853Z,5.60
2023-05-12T00:38:48.878Z,6.37
2023-05-12T00:41:16.832Z,5.83
2023-05-12T00:43:44.816Z,6.13
2023-05-12T00:46:12.735Z,11.63
2023-05-12T00:48:40.685Z,7.17
2023-05-12T00:51:08.834Z,6.77
2023-05-12T00:53:48.308Z,7.93
2023-05-12T00:56:18.628Z,6.70
2023-05-12T00:58:46.933Z,6.93
2023-05-12T01:01:14.993Z,6.50
2023-05-12T01:03:43.080Z,7.00
2023-05-12T01:06:14.610Z,7.03
2023-05-12T01:08:43.885Z,7.67
2023-05-12T01:11:11.993Z,6.80
2023-05-12T01:13:41.294Z,7.13
2023-05-12T01:16:10.787Z,7.00
2023-05-12T01:18:39.475Z,7.30
2023-05-12T01:21:07.820Z,7.47
2023-05-12T01:23:39.284Z,6.90
2023-05-12T01:26:09.470Z,7.13
2023-05-12T01:28:37.800Z,7.27
2023-05-12T01:31:06.722Z,7.47
2023-05-12T01:33:35.196Z,9.67
2023-05-12T01:36:03.112Z,7.60
2023-05-12T01:38:31.009Z,7.60
2023-05-12T01:40:58.992Z,7.67
2023-05-12T01:43:28.299Z,11.20
2023-05-12T01:45:56.217Z,7.93
2023-05-12T01:48:24.091Z,7.53
2023-05-12T01:50:52.002Z,6.97
2023-05-12T01:53:19.925Z,7.30
2023-05-12T01:55:47.899Z,6.90
2023-05-12T01:58:15.980Z,7.53
2023-05-12T02:00:45.248Z,7.40
2023-05-12T02:03:13.220Z,7.63
2023-05-12T02:05:41.404Z,7.93
2023-05-12T02:08:09.389Z,7.03
2023-05-12T02:10:37.369Z,8.33
2023-05-12T02:13:05.349Z,10.40
2023-05-12T02:15:33.348Z,9.00
2023-05-12T02:18:03.820Z,7.50
2023-05-12T02:20:31.794Z,7.47
2023-05-12T02:22:59.693Z,6.80
2023-05-12T02:25:27.626Z,7.13
2023-05-12T02:27:55.531Z,7.63
2023-05-12T02:30:23.768Z,7.27
2023-05-12T02:32:51.715Z,7.43
2023-05-12T02:35:21.477Z,7.93
2023-05-12T02:37:49.451Z,6.57
2023-05-12T02:40:17.791Z,6.63
2023-05-12T02:42:45.816Z,7.47
2023-05-12T02:45:14.205Z,6.77
2023-05-12T02:47:42.298Z,8.07
2023-05-12T02:50:10.819Z,6.70
2023-05-12T02:52:40.139Z,6.73
2023-05-12T02:55:08.569Z,7.27
2023-05-12T02:57:37.700Z,6.63
2023-05-12T03:00:06.817Z,6.50
2023-05-12T03:02:36.251Z,6.53
2023-05-12T03:05:04.400Z,6.83
2023-05-12T03:07:32.580Z,6.53
2023-05-12T03:10:02.438Z,6.47
2023-05-12T03:12:30.433Z,6.43
2023-05-12T03:14:58.634Z,6.40
2023-05-12T03:17:26.870Z,5.77
2023-05-12T03:19:54.810Z,5.87
2023-05-12T03:22:22.760Z,5.80
2023-05-12T03:24:50.710Z,5.87
2023-05-12T03:27:20.008Z,5.63
2023-05-12T03:29:47.921Z,6.23
2023-05-12T03:32:15.930Z,5.57
2023-05-12T03:34:43.842Z,5.27
2023-05-12T03:37:11.786Z,5.63
2023-05-12T03:39:39.680Z,5.73
2023-05-12T03:42:07.919Z,5.20
2023-05-12T03:44:37.226Z,5.17
2023-05-12T03:47:05.478Z,5.20
2023-05-12T03:49:33.476Z,4.97
2023-05-12T03:52:01.614Z,5.13
2023-05-12T03:54:29.538Z,5.30
2023-05-12T03:56:57.462Z,4.80
2023-05-12T03:59:25.794Z,4.77
2023-05-12T04:01:55.087Z,5.03
2023-05-12T04:04:23.003Z,4.83
2023-05-12T04:06:50.999Z,5.03
2023-05-12T04:09:18.920Z,4.53
2023-05-12T04:11:46.783Z,5.20
2023-05-12T04:14:14.788Z,4.47
2023-05-12T04:16:42.724Z,4.53
2023-05-12T04:19:12.125Z,4.67
2023-05-12T04:21:40.024Z,5.03
2023-05-12T04:24:07.989Z,3.97
2023-05-12T04:26:35.895Z,4.60
2023-05-12T04:29:03.777Z,4.03
2023-05-12T04:31:31.714Z,3.93
2023-05-12T04:33:59.663Z,4.63
2023-05-12T04:36:28.928Z,4.30
2023-05-12T04:38:56.909Z,4.27
2023-05-12T04:41:24.803Z,4.33
2023-05-12T04:46:23.630Z,4.23
2023-05-12T04:48:51.548Z,4.50
2023-05-12T04:51:19.456Z,4.27
2023-05-12T04:53:48.756Z,3.80
2023-05-12T04:56:16.896Z,4.20
2023-05-12T04:58:44.868Z,4.10
2023-05-12T05:01:13.681Z,3.53
2023-05-12T05:03:41.763Z,3.73
2023-05-12T05:06:09.772Z,3.67
2023-05-12T05:08:37.651Z,3.67
2023-05-12T05:11:07.033Z,3.83
2023-05-12T05:13:34.917Z,4.23
2023-05-12T05:16:02.992Z,3.80
2023-05-12T05:18:30.949Z,3.50
2023-05-12T05:20:59.357Z,3.73
2023-05-12T05:23:27.544Z,3.40
2023-05-12T05:25:55.482Z,3.60
2023-05-12T05:28:24.918Z,3.83
2023-05-12T05:30:52.855Z,3.47
2023-05-12T05:33:21.364Z,4.00
2023-05-12T05:35:49.290Z,3.73
2023-05-12T05:38:17.243Z,3.80
2023-05-12T05:40:52.159Z,4.43
2023-05-12T05:43:21.866Z,3.57
2023-05-12T05:45:51.487Z,4.73
2023-05-12T05:48:19.537Z,4.57
2023-05-12T05:50:47.479Z,4.00
2023-05-12T05:53:15.540Z,3.90
2023-05-12T05:55:43.556Z,3.70
2023-05-12T05:58:11.492Z,3.10
2023-05-12T06:00:39.458Z,3.43
2023-05-12T06:03:08.805Z,3.57
2023-05-12T06:05:36.864Z,3.17
2023-05-12T06:08:05.306Z,4.57
2023-05-12T06:10:33.381Z,3.40
2023-05-12T06:13:01.331Z,3.60
2023-05-12T06:15:29.245Z,3.53
2023-05-12T06:17:57.203Z,4.17
2023-05-12T06:20:26.511Z,3.33
2023-05-12T06:22:54.436Z,3.60
2023-05-12T06:25:22.644Z,3.27
2023-05-12T06:27:52.037Z,3.67
2023-05-12T06:30:20.154Z,3.47
2023-05-12T06:32:48.175Z,3.70
2023-05-12T06:35:16.800Z,5.10
2023-05-12T06:37:49.737Z,3.67
2023-05-12T06:40:18.066Z,3.90
2023-05-12T06:42:46.042Z,4.10
2023-05-12T06:45:14.019Z,3.53
2023-05-12T06:47:42.107Z,3.90
2023-05-12T06:50:10.441Z,4.17
2023-05-12T06:52:38.620Z,3.43
2023-05-12T06:55:08.673Z,4.20
2023-05-12T06:57:36.730Z,4.00
2023-05-12T07:00:05.036Z,3.50
2023-05-12T07:02:32.995Z,4.30
2023-05-12T07:05:00.996Z,3.77
2023-05-12T07:07:28.918Z,3.47
2023-05-12T07:09:57.170Z,3.30
2023-05-12T07:12:26.544Z,3.50
2023-05-12T07:14:54.473Z,3.27
2023-05-12T07:17:22.799Z,3.83
2023-05-12T07:19:50.720Z,3.50
2023-05-12T07:22:21.374Z,4.03
2023-05-12T07:24:49.295Z,2.93
2023-05-12T07:27:17.758Z,4.10
2023-05-12T07:29:47.050Z,3.40
2023-05-12T07:32:14.956Z,3.93
2023-05-12T07:34:42.885Z,3.20
2023-05-12T07:37:10.777Z,3.10
2023-05-12T07:39:38.661Z,3.70
2023-05-12T07:42:07.160Z,3.47
2023-05-12T07:44:35.055Z,3.50
2023-05-12T07:47:05.231Z,3.70
2023-05-12T07:49:33.190Z,3.33
2023-05-12T07:52:01.355Z,3.73
2023-05-12T07:54:29.281Z,3.53
2023-05-12T07:56:57.165Z,4.10
2023-05-12T07:59:25.093Z,3.90
2023-05-12T08:01:54.070Z,3.63
2023-05-12T08:04:23.543Z,3.53
2023-05-12T08:06:51.520Z,3.27
2023-05-12T08:09:19.517Z,3.40
2023-05-12T08:11:49.409Z,3.67
2023-05-12T08:14:19.313Z,3.40
2023-05-12T08:16:47.919Z,3.40
2023-05-12T08:19:15.980Z,3.20
2023-05-12T08:21:45.718Z,3.37
2023-05-12T08:24:13.618Z,3.60
2023-05-12T08:26:41.517Z,3.83
2023-05-12T08:29:09.733Z,3.60
2023-05-12T08:31:39.494Z,3.73
2023-05-12T08:34:10.752Z,3.50
2023-05-12T08:36:39.281Z,3.50
2023-05-12T08:39:10.202Z,3.50
2023-05-12T08:41:45.577Z,3.03
2023-05-12T08:44:13.924Z,3.30
2023-05-12T08:46:42.138Z,3.60
2023-05-12T08:49:15.788Z,3.43
2023-05-12T08:51:54.498Z,3.93
2023-05-12T08:54:28.451Z,3.80
2023-05-12T08:59:28.037Z,3.33
2023-05-12T09:01:56.533Z,3.83
2023-05-12T09:04:24.609Z,3.70
2023-05-12T09:06:54.990Z,3.57
2023-05-12T09:09:25.921Z,3.70
2023-05-12T09:11:57.683Z,3.90
2023-05-12T09:14:26.826Z,3.40
2023-05-12T09:16:57.384Z,3.70
2023-05-12T09:19:25.289Z,3.60
2023-05-12T09:21:53.395Z,3.37
2023-05-12T09:24:22.400Z,3.13
2023-05-12T09:26:54.461Z,3.30
2023-05-12T09:29:31.221Z,3.30
2023-05-12T09:32:02.602Z,2.80
2023-05-12T09:34:32.166Z,3.40
2023-05-12T09:37:01.353Z,3.23
2023-05-12T09:39:29.632Z,3.30
2023-05-12T09:41:58.955Z,3.33
2023-05-12T09:44:29.022Z,3.00
2023-05-12T09:46:56.963Z,2.30
2023-05-12T09:49:27.120Z,2.77
2023-05-12T09:51:56.771Z,2.97
2023-05-12T09:54:28.384Z,2.77
2023-05-12T09:57:00.719Z,3.10
2023-05-12T09:59:32.756Z,3.27
2023-05-12T10:02:01.763Z,3.00
2023-05-12T10:04:33.126Z,2.67
2023-05-12T10:07:01.195Z,2.63
2023-05-12T10:09:34.076Z,3.40
2023-05-12T10:12:04.695Z,3.00
2023-05-12T10:14:32.930Z,2.80
2023-05-12T10:17:01.593Z,2.47
2023-05-12T10:19:30.179Z,2.60
2023-05-12T10:21:58.726Z,2.60
2023-05-12T10:24:28.031Z,2.50
2023-05-12T10:26:56.771Z,3.10
2023-05-12T10:29:30.152Z,2.50
2023-05-12T10:31:58.576Z,2.50
2023-05-12T10:34:31.635Z,3.20
2023-05-12T10:36:59.679Z,2.50
2023-05-12T10:39:29.760Z,2.60
2023-05-12T10:42:02.819Z,2.40
2023-05-12T10:44:32.185Z,2.60
2023-05-12T10:47:00.352Z,2.60
2023-05-12T10:49:35.140Z,2.67
2023-05-12T10:52:03.076Z,2.60
2023-05-12T10:54:30.977Z,2.77
2023-05-12T10:57:02.246Z,2.70
2023-05-12T10:59:32.187Z,2.70
2023-05-12T11:02:03.583Z,2.50
2023-05-12T11:04:42.253Z,2.73
2023-05-12T11:07:12.190Z,2.60
2023-05-12T11:09:50.586Z,2.70
2023-05-12T11:12:21.780Z,2.70
2023-05-12T11:14:51.167Z,2.50
2023-05-12T11:17:19.051Z,2.37
2023-05-12T11:19:49.592Z,2.50
2023-05-12T11:22:19.260Z,2.60
2023-05-12T11:24:47.918Z,2.50
2023-05-12T11:27:17.091Z,2.60
2023-05-12T11:29:47.100Z,2.50
2023-05-12T11:32:17.289Z,2.57
2023-05-12T11:34:45.483Z,2.43
2023-05-12T11:37:13.371Z,2.70
2023-05-12T11:39:42.679Z,2.07
2023-05-12T11:42:13.587Z,2.13
2023-05-12T11:44:48.445Z,2.60
2023-05-12T11:47:18.532Z,2.17
2023-05-12T11:49:48.454Z,2.43
2023-05-12T11:52:17.256Z,2.20
2023-05-12T11:54:50.188Z,2.33
2023-05-12T11:57:26.779Z,2.63
2023-05-12T11:59:58.952Z,2.47
2023-05-12T12:02:28.600Z,2.43
2023-05-12T12:04:56.607Z,2.83
2023-05-12T12:07:31.898Z,2.43
2023-05-12T12:10:00.366Z,2.20
2023-05-12T12:12:28.312Z,2.73
2023-05-12T12:15:00.048Z,2.30
2023-05-12T12:17:31.337Z,2.17
2023-05-12T12:19:59.477Z,2.27
2023-05-12T12:22:27.463Z,2.50
2023-05-12T12:24:55.379Z,2.27
2023-05-12T12:27:23.276Z,2.30
2023-05-12T12:29:51.404Z,2.00
2023-05-12T12:32:19.676Z,1.90
2023-05-12T12:34:49.319Z,2.50
2023-05-12T12:37:17.729Z,2.27
2023-05-12T12:39:47.672Z,2.23
2023-05-12T12:42:16.019Z,2.27
2023-05-12T12:44:46.026Z,2.57
2023-05-12T12:47:13.996Z,2.23
2023-05-12T12:49:41.990Z,2.23
2023-05-12T12:52:11.432Z,2.20
2023-05-12T12:54:39.316Z,2.10
2023-05-12T12:57:07.266Z,2.03
2023-05-12T12:59:35.176Z,2.10
2023-05-12T13:02:03.256Z,2.17
2023-05-12T13:04:31.385Z,2.20
2023-05-12T13:06:59.316Z,2.10
2023-05-12T13:09:28.656Z,2.00
2023-05-12T13:11:56.617Z,2.20
2023-05-12T13:14:24.931Z,2.13
2023-05-12T13:16:53.001Z,2.70
2023-05-12T13:19:21.721Z,2.28
2023-05-12T13:21:49.662Z,1.90
2023-05-12T13:24:17.628Z,1.80
2023-05-12T13:26:46.924Z,1.95
2023-05-12T13:29:14.808Z,2.10
2023-05-12T13:31:43.121Z,2.20
2023-05-12T13:34:11.098Z,2.00
2023-05-12T13:36:39.014Z,1.95
2023-05-12T13:39:07.115Z,2.00
2023-05-12T13:41:35.033Z,2.05
2023-05-12T13:44:04.563Z,2.30
2023-05-12T13:46:32.547Z,2.20
2023-05-12T13:49:00.786Z,2.65
2023-05-12T13:51:28.735Z,2.42
2023-05-12T13:53:57.001Z,2.15
2023-05-12T13:56:25.718Z,2.05
2023-05-12T13:58:53.638Z,2.47
2023-05-12T14:01:22.946Z,1.90
2023-05-12T14:03:51.096Z,2.15
2023-05-12T14:06:18.979Z,2.30
2023-05-12T14:08:46.892Z,1.92
2023-05-12T14:11:14.911Z,1.88
2023-05-12T14:13:42.821Z,2.10
2023-05-12T14:16:12.834Z,1.92
2023-05-12T14:18:43.527Z,1.77
2023-05-12T14:21:11.903Z,2.25
2023-05-12T14:23:40.085Z,2.10
2023-05-12T14:26:07.984Z,2.30
2023-05-12T14:28:37.116Z,2.00
2023-05-12T14:31:05.210Z,1.90
2023-05-12T14:33:33.243Z,1.92
2023-05-12T14:36:07.495Z,2.10
2023-05-12T14:38:36.873Z,1.95
2023-05-12T14:41:07.104Z,2.10
2023-05-12T14:43:35.088Z,2.40
2023-05-12T14:46:03.057Z,2.05
2023-05-12T14:48:31.806Z,1.95
2023-05-12T14:51:00.333Z,2.20
2023-05-12T14:53:29.657Z,2.15
2023-05-12T14:55:57.575Z,2.00
2023-05-12T14:58:25.513Z,2.10
2023-05-12T15:00:53.622Z,1.67
2023-05-12T15:03:21.810Z,2.10
2023-05-12T15:08:22.820Z,2.45
2023-05-12T15:10:52.336Z,2.10
2023-05-12T15:13:23.028Z,2.22
2023-05-12T15:15:51.896Z,2.50
2023-05-12T15:18:22.140Z,1.98
2023-05-12T15:20:50.100Z,1.70
2023-05-12T15:23:18.079Z,1.90
2023-05-12T15:25:46.073Z,2.20
2023-05-12T15:28:15.553Z,2.85
2023-05-12T15:30:43.461Z,3.05
2023-05-12T15:33:11.419Z,2.20
2023-05-12T15:35:40.757Z,2.85
2023-05-12T15:38:08.726Z,2.40
2023-05-12T15:40:36.621Z,2.63
2023-05-12T15:43:05.015Z,2.15
2023-05-12T15:45:37.291Z,2.22
2023-05-12T15:48:08.715Z,2.50
2023-05-12T15:50:38.081Z,2.03
2023-05-12T15:53:06.938Z,2.17
2023-05-12T15:55:34.860Z,2.08
2023-05-12T15:58:03.613Z,2.05
2023-05-12T16:00:31.589Z,2.00
2023-05-12T16:03:01.843Z,2.30
2023-05-12T16:05:29.979Z,2.58
2023-05-12T16:07:57.873Z,2.40
2023-05-12T16:10:25.779Z,2.42
2023-05-12T16:12:53.692Z,2.55
2023-05-12T16:15:21.913Z,2.40
2023-05-12T16:17:50.079Z,2.50
2023-05-12T16:20:19.571Z,2.30
2023-05-12T16:22:48.293Z,2.72
2023-05-12T16:25:16.317Z,2.30
2023-05-12T16:27:44.212Z,2.20
2023-05-12T16:30:13.344Z,2.28
2023-05-12T16:32:41.766Z,2.58
2023-05-12T16:35:10.972Z,2.50
2023-05-12T16:37:40.296Z,2.60
2023-05-12T16:40:09.742Z,2.50
2023-05-12T16:42:37.706Z,2.75
2023-05-12T16:45:06.449Z,2.63
2023-05-12T16:47:34.404Z,2.65
2023-05-12T16:50:02.524Z,2.40
2023-05-12T16:52:30.661Z,2.40
2023-05-12T16:55:00.208Z,2.42
2023-05-12T16:57:28.191Z,2.45
2023-05-12T16:59:56.135Z,2.63
2023-05-12T17:02:24.112Z,2.15
2023-05-12T17:04:52.059Z,2.55
2023-05-12T17:07:19.987Z,2.35
2023-05-12T17:09:47.889Z,2.30
2023-05-12T17:12:17.216Z,2.70
2023-05-12T17:14:50.124Z,2.53
2023-05-12T17:17:18.148Z,2.58
2023-05-12T17:19:46.156Z,2.20
2023-05-12T17:22:14.402Z,2.33
2023-05-12T17:24:42.304Z,2.13
2023-05-12T17:27:10.180Z,2.58
2023-05-12T17:29:39.464Z,2.60
2023-05-12T17:32:08.079Z,2.40
2023-05-12T17:34:36.008Z,2.38
2023-05-12T17:37:06.058Z,2.10
2023-05-12T17:39:34.487Z,2.60
2023-05-12T17:42:03.282Z,2.35
2023-05-12T17:44:31.681Z,2.42
2023-05-12T17:47:01.292Z,2.20
2023-05-12T17:49:29.325Z,2.60
2023-05-12T17:51:57.253Z,2.58
2023-05-12T17:54:25.174Z,2.22
2023-05-12T17:56:53.096Z,2.60
2023-05-12T17:59:21.026Z,2.13
2023-05-12T18:01:49.158Z,2.22
2023-05-12T18:04:19.371Z,2.70
2023-05-12T18:06:50.099Z,2.60
2023-05-12T18:09:19.860Z,2.97
2023-05-12T18:11:48.041Z,2.40
2023-05-12T18:14:16.007Z,2.67
2023-05-12T18:16:43.961Z,2.55
2023-05-12T18:19:11.945Z,2.47
2023-05-12T18:21:41.264Z,2.45
2023-05-12T18:24:09.465Z,2.90
2023-05-12T18:26:37.569Z,2.67
2023-05-12T18:29:05.554Z,2.90
2023-05-12T18:31:34.358Z,2.78
2023-05-12T18:34:02.324Z,2.60
2023-05-12T18:36:30.230Z,2.50
2023-05-12T18:38:59.488Z,2.60
2023-05-12T18:41:27.784Z,2.67
2023-05-12T18:43:55.714Z,2.30
2023-05-12T18:46:23.707Z,2.38
2023-05-12T18:48:51.621Z,2.40
2023-05-12T18:51:19.552Z,2.60
2023-05-12T18:53:47.940Z,2.20
2023-05-12T18:56:17.212Z,2.63
2023-05-12T18:58:45.130Z,2.67
2023-05-12T19:01:13.035Z,2.30
2023-05-12T19:03:41.423Z,2.60
2023-05-12T19:06:09.361Z,2.60
2023-05-12T19:08:37.260Z,2.50
2023-05-12T19:11:05.178Z,2.43
2023-05-12T19:13:34.507Z,2.33
2023-05-12T19:16:02.468Z,2.77
2023-05-12T19:18:30.708Z,2.83
2023-05-12T19:20:58.601Z,2.60
2023-05-12T19:23:26.772Z,2.73
2023-05-12T19:25:54.764Z,2.50
2023-05-12T19:28:22.670Z,2.60
2023-05-12T19:30:51.983Z,2.40
2023-05-12T19:33:19.883Z,2.50
2023-05-12T19:35:47.843Z,2.63
2023-05-12T19:38:15.846Z,2.60
2023-05-12T19:40:46.573Z,2.47
2023-05-12T19:43:14.480Z,2.70
2023-05-12T19:45:42.527Z,2.50
2023-05-12T19:48:11.969Z,2.63
2023-05-12T19:50:39.908Z,2.17
2023-05-12T19:53:08.000Z,2.50
2023-05-12T19:55:36.197Z,2.37
2023-05-12T19:58:04.107Z,2.23
2023-05-12T20:00:32.012Z,2.50
2023-05-12T20:03:00.089Z,2.20
2023-05-12T20:05:29.551Z,2.70
2023-05-12T20:07:57.820Z,3.13
2023-05-12T20:10:25.897Z,2.97
2023-05-12T20:12:54.889Z,2.77
2023-05-12T20:15:22.970Z,2.83
2023-05-12T20:17:51.218Z,3.00
2023-05-12T20:20:19.106Z,2.80
2023-05-12T20:22:48.516Z,3.03
2023-05-12T20:25:17.765Z,3.13
2023-05-12T20:27:45.826Z,3.17
2023-05-12T20:30:14.267Z,2.70
2023-05-12T20:32:43.604Z,2.83
2023-05-12T20:35:11.547Z,2.70
2023-05-12T20:37:40.566Z,2.83
2023-05-12T20:40:11.082Z,2.60
2023-05-12T20:42:38.966Z,2.90
2023-05-12T20:45:08.078Z,2.90
2023-05-12T20:47:36.758Z,2.70
2023-05-12T20:50:05.651Z,2.97
2023-05-12T20:52:33.779Z,2.80
2023-05-12T20:55:01.753Z,2.80
2023-05-12T20:57:31.080Z,2.80
2023-05-12T20:59:58.990Z,2.63
2023-05-12T21:02:28.232Z,2.73
2023-05-12T21:04:56.958Z,2.87
2023-05-12T21:07:24.934Z,2.90
2023-05-12T21:09:52.889Z,2.50
2023-05-12T21:12:20.808Z,2.77
2023-05-12T21:14:50.119Z,2.60
2023-05-12T21:17:18.078Z,2.87
2023-05-12T21:19:46.257Z,3.30
2023-05-12T21:22:14.267Z,2.67
2023-05-12T21:24:43.057Z,2.60
2023-05-12T21:27:11.585Z,3.07
2023-05-12T21:29:39.598Z,2.63
2023-05-12T21:32:09.281Z,3.07
2023-05-12T21:34:37.249Z,2.70
2023-05-12T21:37:05.336Z,2.80
2023-05-12T21:39:33.255Z,2.83
2023-05-12T21:42:01.175Z,3.20
2023-05-12T21:44:29.092Z,2.37
2023-05-12T21:46:58.718Z,3.17
2023-05-12T21:49:28.102Z,2.73
2023-05-12T21:51:56.329Z,2.70
2023-05-12T21:54:24.242Z,2.80
2023-05-12T21:56:52.562Z,2.83
2023-05-12T21:59:20.712Z,3.03
2023-05-12T22:01:48.764Z,2.80
2023-05-12T22:04:16.703Z,2.90
2023-05-12T22:06:45.993Z,2.80
2023-05-12T22:09:14.389Z,3.17
2023-05-12T22:11:42.336Z,3.00
2023-05-12T22:14:10.252Z,3.80
2023-05-12T22:16:41.708Z,3.20
2023-05-12T22:19:10.521Z,2.80
2023-05-12T22:21:38.608Z,3.10
2023-05-12T22:24:08.732Z,2.90
2023-05-12T22:26:36.634Z,2.77
2023-05-12T22:29:04.559Z,2.77
2023-05-12T22:31:32.521Z,3.00
2023-05-12T22:34:00.441Z,2.87
2023-05-12T22:36:28.369Z,2.90
2023-05-12T22:38:56.363Z,2.40
2023-05-12T22:41:25.808Z,2.67
2023-05-12T22:43:53.704Z,2.60
2023-05-12T22:46:21.716Z,2.77
2023-05-12T22:48:50.859Z,2.83
2023-05-12T22:51:18.727Z,3.20
2023-05-12T22:53:46.710Z,2.70
2023-05-12T22:56:14.610Z,2.83
2023-05-12T22:58:43.899Z,3.03
2023-05-12T23:01:11.928Z,2.80
2023-05-12T23:03:39.891Z,2.80
2023-05-12T23:06:08.091Z,3.17
2023-05-12T23:08:36.086Z,2.87
2023-05-12T23:11:03.996Z,3.10
2023-05-12T23:13:31.892Z,2.63
2023-05-12T23:16:01.246Z,3.00
2023-05-12T23:18:29.204Z,2.90
2023-05-12T23:20:57.133Z,3.57
2023-05-12T23:23:25.145Z,3.07
2023-05-12T23:25:53.059Z,3.17
2023-05-12T23:28:21.201Z,2.77
2023-05-12T23:30:49.131Z,2.93
2023-05-12T23:33:18.506Z,3.13
2023-05-12T23:35:46.441Z,3.27
2023-05-12T23:38:14.350Z,2.63
2023-05-12T23:40:42.280Z,3.30
2023-05-12T23:43:10.181Z,3.20
2023-05-12T23:45:38.175Z,2.90
2023-05-12T23:48:06.779Z,2.90
2023-05-12T23:50:36.125Z,3.10
2023-05-12T23:53:04.047Z,3.27
2023-05-12T23:55:31.975Z,2.93
2023-05-12T23:58:00.111Z,3.40
